Time;durP1;ratioP1;P1;durP2;ratioP2;P2;SDS_P1;SDS_P2;PMS_P1;PMS_P2;Temp;Humidity;BMP_temperature;BMP_pressure;BME280_temperature;BME280_humidity;BME280_pressure;Samples;Min_cycle;Max_cycle;Signal;HPM_P1;HPM_P2
2024/01/29 00:02:26;;;;;;;16.30;6.37;;;7.20;74.60;;;;;;751168;190;26568;-78
2024/01/29 00:04:53;;;;;;;11.47;6.40;;;7.10;76.40;;;;;;750937;188;27064;-80
2024/01/29 00:07:19;;;;;;;13.00;6.20;;;7.10;74.30;;;;;;750617;191;26561;-78
2024/01/29 00:09:46;;;;;;;12.27;5.80;;;7.10;75.80;;;;;;750484;191;26693;-75
2024/01/29 00:12:12;;;;;;;9.53;5.47;;;7.10;74.60;;;;;;750602;191;26517;-79
2024/01/29 00:14:39;;;;;;;11.90;5.70;;;7.20;73.60;;;;;;750723;191;26696;-79
2024/01/29 00:17:07;;;;;;;12.33;6.27;;;7.20;75.60;;;;;;750748;191;26587;-79
2024/01/29 00:19:32;;;;;;;9.93;5.40;;;7.20;73.70;;;;;;748942;191;26532;-79
2024/01/29 00:21:59;;;;;;;10.57;5.67;;;7.20;75.30;;;;;;766146;185;26513;-79
2024/01/29 00:24:25;;;;;;;12.27;6.27;;;7.10;73.80;;;;;;764425;188;26555;-79
2024/01/29 00:26:52;;;;;;;11.87;6.00;;;7.10;73.80;;;;;;763985;188;27136;-79
2024/01/29 00:29:19;;;;;;;9.73;5.33;;;7.10;74.10;;;;;;764358;186;26492;-78
2024/01/29 00:31:45;;;;;;;15.13;5.77;;;7.10;74.30;;;;;;762542;186;27055;-79
2024/01/29 00:34:12;;;;;;;8.23;6.07;;;7.10;73.40;;;;;;760005;187;26501;-79
2024/01/29 00:36:38;;;;;;;10.20;5.53;;;7.10;73.10;;;;;;759681;187;26515;-80
2024/01/29 00:39:09;;;;;;;10.47;5.83;;;7.20;73.60;;;;;;759965;185;26525;-79
2024/01/29 00:41:32;;;;;;;8.57;5.70;;;7.20;73.20;;;;;;761413;187;26489;-81
2024/01/29 00:43:58;;;;;;;11.00;5.80;;;7.10;73.30;;;;;;765540;185;26497;-79
2024/01/29 00:46:25;;;;;;;10.63;6.00;;;7.10;73.60;;;;;;766830;184;26508;-77
2024/01/29 00:48:51;;;;;;;9.33;5.77;;;7.10;74.00;;;;;;764147;188;26493;-81
2024/01/29 00:51:18;;;;;;;9.30;5.53;;;7.10;73.10;;;;;;763432;188;26502;-80
2024/01/29 00:53:45;;;;;;;9.83;5.60;;;7.10;75.10;;;;;;762636;188;26488;-81
2024/01/29 00:56:11;;;;;;;11.17;5.50;;;7.10;74.30;;;;;;760513;188;26552;-79
2024/01/29 00:58:39;;;;;;;11.57;5.30;;;7.10;74.60;;;;;;763024;186;26705;-80
2024/01/29 01:01:05;;;;;;;14.33;6.50;;;7.10;75.70;;;;;;763711;187;27018;-78
2024/01/29 01:03:31;;;;;;;13.60;6.90;;;7.10;74.80;;;;;;764364;186;26487;-81
2024/01/29 01:05:58;;;;;;;11.70;6.27;;;7.10;74.40;;;;;;763911;188;27081;-78
2024/01/29 01:08:24;;;;;;;11.63;5.93;;;7.10;75.60;;;;;;763826;188;26483;-79
2024/01/29 01:10:51;;;;;;;9.57;5.70;;;7.10;74.80;;;;;;763634;188;26514;-79
2024/01/29 01:13:17;;;;;;;8.83;5.47;;;7.20;73.80;;;;;;763061;188;26514;-79
2024/01/29 01:15:44;;;;;;;10.77;5.60;;;7.20;73.20;;;;;;762617;188;26512;-77
2024/01/29 01:18:11;;;;;;;9.97;5.50;;;7.20;73.50;;;;;;761995;188;26507;-79
2024/01/29 01:20:37;;;;;;;12.17;5.83;;;7.20;75.20;;;;;;762621;188;26520;-79
2024/01/29 01:23:04;;;;;;;9.63;6.17;;;7.20;73.80;;;;;;760817;188;26537;-79
2024/01/29 01:25:30;;;;;;;10.63;5.80;;;7.20;73.10;;;;;;763085;187;26529;-79
2024/01/29 01:27:57;;;;;;;10.60;5.87;;;7.20;73.40;;;;;;762055;188;27011;-79
2024/01/29 01:30:24;;;;;;;12.47;5.60;;;7.20;74.20;;;;;;763206;188;27817;-80
2024/01/29 01:32:50;;;;;;;12.00;5.67;;;7.20;73.50;;;;;;763568;188;27022;-81
2024/01/29 01:35:17;;;;;;;15.17;6.17;;;7.20;72.70;;;;;;762299;188;26488;-81
2024/01/29 01:37:43;;;;;;;9.37;5.30;;;7.20;73.60;;;;;;761636;187;27034;-76
2024/01/29 01:40:11;;;;;;;11.03;5.87;;;7.20;75.10;;;;;;762140;188;26484;-79
2024/01/29 01:42:39;;;;;;;9.47;6.03;;;7.30;73.00;;;;;;763091;188;27058;-79
2024/01/29 01:45:05;;;;;;;12.23;5.77;;;7.30;73.00;;;;;;763843;188;26490;-81
2024/01/29 01:47:32;;;;;;;9.97;5.97;;;7.30;74.00;;;;;;760181;187;27053;-79
2024/01/29 01:49:59;;;;;;;11.23;5.30;;;7.20;73.10;;;;;;761611;185;27169;-79
2024/01/29 01:52:25;;;;;;;11.50;6.00;;;7.30;73.30;;;;;;758688;188;26484;-79
2024/01/29 01:54:53;;;;;;;11.83;5.70;;;7.20;74.30;;;;;;761441;188;27023;-76
2024/01/29 01:57:19;;;;;;;11.73;6.43;;;7.20;73.30;;;;;;761387;188;26522;-80
2024/01/29 01:59:45;;;;;;;11.10;6.10;;;7.20;74.20;;;;;;762588;188;27755;-80
2024/01/29 02:02:12;;;;;;;10.50;5.63;;;7.20;73.90;;;;;;762732;185;26523;-80
2024/01/29 02:04:38;;;;;;;7.90;5.23;;;7.20;73.60;;;;;;761223;186;26484;-79
2024/01/29 02:07:05;;;;;;;10.37;5.70;;;7.20;73.40;;;;;;762570;188;26504;-79
2024/01/29 02:09:32;;;;;;;11.63;5.70;;;7.20;74.40;;;;;;761466;185;26533;-76
2024/01/29 02:11:58;;;;;;;14.33;6.37;;;7.10;74.10;;;;;;763405;186;26518;-80
2024/01/29 02:14:25;;;;;;;8.87;5.57;;;7.10;75.00;;;;;;762447;187;26506;-79
2024/01/29 02:16:51;;;;;;;9.93;5.40;;;7.00;76.00;;;;;;761813;187;26747;-78
2024/01/29 02:19:18;;;;;;;9.07;5.70;;;7.00;75.30;;;;;;763193;188;26476;-78
2024/01/29 02:21:45;;;;;;;10.47;5.93;;;7.00;75.10;;;;;;762556;188;27043;-78
2024/01/29 02:24:11;;;;;;;11.07;5.43;;;7.00;75.40;;;;;;761317;186;26620;-75
2024/01/29 02:26:38;;;;;;;9.70;5.33;;;7.00;75.70;;;;;;762707;188;26621;-79
2024/01/29 02:29:04;;;;;;;10.40;5.87;;;7.00;75.10;;;;;;763545;180;26493;-81
2024/01/29 02:31:31;;;;;;;11.97;5.77;;;6.90;76.60;;;;;;764593;180;26509;-80
2024/01/29 02:33:58;;;;;;;10.73;5.37;;;7.00;74.70;;;;;;763122;180;26506;-77
2024/01/29 02:36:24;;;;;;;9.47;5.17;;;6.90;75.90;;;;;;764055;188;26504;-81
2024/01/29 02:38:51;;;;;;;12.70;5.30;;;6.90;76.30;;;;;;762576;188;26635;-79
2024/01/29 02:41:17;;;;;;;11.87;5.67;;;6.90;76.40;;;;;;764793;186;27042;-80
2024/01/29 02:43:44;;;;;;;9.90;5.67;;;6.90;76.00;;;;;;764737;184;26541;-81
2024/01/29 02:46:11;;;;;;;9.27;5.60;;;6.90;74.80;;;;;;764108;184;26557;-82
2024/01/29 02:48:37;;;;;;;9.20;6.10;;;7.00;75.30;;;;;;760826;187;26650;-81
2024/01/29 02:51:04;;;;;;;12.23;5.97;;;6.90;76.40;;;;;;761546;188;26550;-76
2024/01/29 02:53:31;;;;;;;9.23;5.40;;;6.90;75.80;;;;;;763858;187;26740;-80
2024/01/29 02:55:57;;;;;;;11.20;5.97;;;6.90;77.00;;;;;;763701;187;26537;-81
2024/01/29 02:58:24;;;;;;;11.47;5.87;;;6.90;75.40;;;;;;759935;188;26530;-79
2024/01/29 03:00:51;;;;;;;10.47;5.40;;;6.90;75.40;;;;;;761219;187;26505;-79
2024/01/29 03:03:17;;;;;;;8.60;5.60;;;7.00;75.30;;;;;;762030;187;26503;-80
2024/01/29 03:05:44;;;;;;;13.90;5.93;;;7.00;75.70;;;;;;765061;185;26523;-77
2024/01/29 03:08:11;;;;;;;13.57;5.67;;;7.00;75.70;;;;;;765075;187;26515;-80
2024/01/29 03:10:37;;;;;;;11.50;5.70;;;7.00;75.50;;;;;;764941;188;27039;-79
2024/01/29 03:13:04;;;;;;;8.97;5.57;;;7.00;75.30;;;;;;764189;187;26534;-80
2024/01/29 03:15:30;;;;;;;10.83;6.00;;;6.90;76.20;;;;;;763614;188;26520;-80
2024/01/29 03:17:57;;;;;;;14.87;6.00;;;6.90;77.30;;;;;;762249;188;26501;-80
2024/01/29 03:20:24;;;;;;;8.00;5.63;;;6.80;77.70;;;;;;763817;187;26635;-79
2024/01/29 03:22:50;;;;;;;11.37;4.90;;;6.70;78.00;;;;;;761078;187;26517;-79
2024/01/29 03:25:17;;;;;;;11.20;5.30;;;6.70;77.90;;;;;;762772;186;26489;-79
2024/01/29 03:27:44;;;;;;;9.87;5.90;;;6.70;78.50;;;;;;765118;187;26515;-75
2024/01/29 03:30:11;;;;;;;9.70;5.70;;;6.60;78.10;;;;;;764690;187;27033;-78
2024/01/29 03:32:37;;;;;;;9.67;5.70;;;6.60;77.90;;;;;;760935;186;26491;-80
2024/01/29 03:35:04;;;;;;;8.73;5.53;;;6.50;78.40;;;;;;761297;187;27053;-80
2024/01/29 03:37:31;;;;;;;11.83;5.60;;;6.50;79.20;;;;;;762218;188;26508;-80
2024/01/29 03:39:58;;;;;;;11.77;6.13;;;6.40;80.00;;;;;;761390;185;26510;-80
2024/01/29 03:42:24;;;;;;;9.43;5.77;;;6.40;80.00;;;;;;761133;187;26555;-79
2024/01/29 03:44:51;;;;;;;11.53;5.67;;;6.50;80.00;;;;;;761986;186;26521;-75
2024/01/29 03:47:17;;;;;;;9.10;5.70;;;6.40;80.40;;;;;;763298;188;26538;-80
2024/01/29 03:49:45;;;;;;;10.07;5.83;;;6.30;80.20;;;;;;762823;186;26517;-80
2024/01/29 03:52:12;;;;;;;10.00;6.30;;;6.30;81.00;;;;;;760153;188;26523;-78
2024/01/29 03:54:39;;;;;;;10.33;5.97;;;6.30;82.40;;;;;;763467;185;26483;-77
2024/01/29 03:57:06;;;;;;;13.17;6.20;;;6.30;80.90;;;;;;764206;186;26543;-77
2024/01/29 03:59:35;;;;;;;12.50;5.30;;;6.40;80.10;;;;;;764111;187;26483;-79
2024/01/29 04:02:03;;;;;;;10.97;5.90;;;6.40;79.40;;;;;;762505;188;26495;-79
2024/01/29 04:04:29;;;;;;;11.27;6.40;;;6.50;80.20;;;;;;767620;186;26510;-78
2024/01/29 04:06:56;;;;;;;11.87;7.07;;;6.50;80.20;;;;;;760528;187;26511;-79
2024/01/29 04:09:23;;;;;;;10.57;6.17;;;6.40;80.30;;;;;;760086;188;26531;-79
2024/01/29 04:11:51;;;;;;;10.63;6.30;;;6.40;80.60;;;;;;760093;188;26526;-79
2024/01/29 04:14:18;;;;;;;10.50;5.83;;;6.40;81.50;;;;;;764128;187;26487;-77
2024/01/29 04:16:45;;;;;;;13.00;6.17;;;6.40;81.40;;;;;;762923;187;26550;-79
2024/01/29 04:19:12;;;;;;;9.53;6.00;;;6.40;80.10;;;;;;760593;185;26562;-79
2024/01/29 04:21:42;;;;;;;14.70;6.23;;;6.40;81.40;;;;;;762764;188;26492;-77
2024/01/29 04:24:12;;;;;;;10.03;6.43;;;6.30;81.20;;;;;;761606;188;26505;-77
2024/01/29 04:26:40;;;;;;;11.77;6.20;;;6.30;81.80;;;;;;762101;188;26627;-79
2024/01/29 04:29:08;;;;;;;11.40;6.53;;;6.30;81.70;;;;;;762291;186;26496;-77
2024/01/29 04:31:33;;;;;;;10.60;6.33;;;6.20;82.00;;;;;;765474;188;26535;-78
2024/01/29 04:34:00;;;;;;;13.23;5.83;;;6.20;82.40;;;;;;766837;186;26495;-79
2024/01/29 04:36:27;;;;;;;13.53;6.60;;;6.30;82.30;;;;;;754158;188;26574;-80
2024/01/29 04:38:53;;;;;;;9.10;6.67;;;6.30;82.30;;;;;;766313;183;26477;-82
2024/01/29 04:41:20;;;;;;;18.40;6.60;;;6.30;81.70;;;;;;765254;188;26518;-79
2024/01/29 04:43:47;;;;;;;12.87;6.27;;;6.30;82.00;;;;;;762528;188;26627;-81
2024/01/29 04:46:13;;;;;;;21.20;7.07;;;6.30;82.20;;;;;;764997;188;26658;-80
2024/01/29 04:48:40;;;;;;;13.80;6.47;;;6.30;82.90;;;;;;765177;188;26491;-79
2024/01/29 04:51:07;;;;;;;13.17;6.20;;;6.30;82.10;;;;;;764777;188;26532;-80
2024/01/29 04:53:33;;;;;;;10.87;6.53;;;6.30;81.50;;;;;;762751;188;26488;-75
2024/01/29 04:56:01;;;;;;;11.13;6.40;;;6.30;82.10;;;;;;764512;185;26696;-80
2024/01/29 04:58:27;;;;;;;14.87;7.20;;;6.30;81.60;;;;;;763161;188;26487;-80
2024/01/29 05:00:54;;;;;;;12.80;6.50;;;6.30;81.80;;;;;;761121;188;26506;-80
2024/01/29 05:03:20;;;;;;;11.17;6.27;;;6.20;83.50;;;;;;761597;188;26495;-79
2024/01/29 05:05:47;;;;;;;13.93;7.33;;;6.20;83.20;;;;;;764402;188;26511;-79
2024/01/29 05:08:14;;;;;;;14.90;6.07;;;6.10;84.00;;;;;;763075;188;26634;-79
2024/01/29 05:10:40;;;;;;;9.97;6.03;;;6.10;83.40;;;;;;761752;188;27163;-80
2024/01/29 05:13:07;;;;;;;14.23;7.00;;;6.10;82.50;;;;;;762240;188;26639;-80
2024/01/29 05:15:34;;;;;;;11.83;6.30;;;6.10;83.10;;;;;;765673;185;26492;-79
2024/01/29 05:18:00;;;;;;;13.23;6.17;;;6.00;82.90;;;;;;762338;186;26480;-78
2024/01/29 05:20:27;;;;;;;11.27;6.17;;;6.00;84.30;;;;;;760525;187;26496;-76
2024/01/29 05:22:54;;;;;;;12.70;6.97;;;6.00;83.60;;;;;;760657;188;26489;-77
2024/01/29 05:25:22;;;;;;;8.40;5.90;;;6.00;83.10;;;;;;760342;185;26537;-78
2024/01/29 05:27:49;;;;;;;12.97;5.80;;;6.00;83.40;;;;;;786269;177;27036;-77
2024/01/29 05:30:15;;;;;;;10.63;6.27;;;5.90;84.60;;;;;;794397;181;26608;-77
2024/01/29 05:32:42;;;;;;;12.87;6.70;;;5.90;85.50;;;;;;780520;183;27021;-77
2024/01/29 05:35:09;;;;;;;13.60;6.27;;;5.90;84.60;;;;;;797967;180;26524;-78
2024/01/29 05:37:35;;;;;;;12.20;6.60;;;6.00;83.80;;;;;;775486;183;27052;-75
2024/01/29 05:40:02;;;;;;;11.50;6.83;;;5.90;85.50;;;;;;790665;180;26452;-74
2024/01/29 05:42:29;;;;;;;11.20;6.47;;;6.00;85.10;;;;;;792264;180;26456;-74
2024/01/29 05:44:55;;;;;;;15.97;6.57;;;6.00;83.70;;;;;;791618;180;26523;-75
2024/01/29 05:47:23;;;;;;;13.10;7.10;;;6.00;84.60;;;;;;792118;179;27031;-73
2024/01/29 05:49:48;;;;;;;11.23;6.37;;;5.90;84.50;;;;;;791062;181;26489;-73
2024/01/29 05:52:15;;;;;;;12.30;7.23;;;5.90;86.30;;;;;;787632;181;26498;-73
2024/01/29 05:54:42;;;;;;;12.47;6.57;;;5.90;85.10;;;;;;788770;181;26510;-74
2024/01/29 05:57:10;;;;;;;10.77;6.83;;;5.80;85.80;;;;;;788353;180;26469;-74
2024/01/29 05:59:39;;;;;;;11.53;6.70;;;5.80;86.20;;;;;;769450;184;26648;-73
2024/01/29 06:02:05;;;;;;;12.87;6.63;;;5.80;86.40;;;;;;778187;184;27022;-73
2024/01/29 06:04:32;;;;;;;13.17;6.87;;;5.80;85.70;;;;;;782994;180;26452;-76
2024/01/29 06:06:58;;;;;;;10.63;6.93;;;5.90;85.00;;;;;;789099;181;27028;-75
2024/01/29 06:09:25;;;;;;;10.93;6.70;;;5.80;86.20;;;;;;788794;181;26508;-78
2024/01/29 06:11:51;;;;;;;13.80;6.60;;;5.80;86.30;;;;;;786707;179;27055;-77
2024/01/29 06:14:18;;;;;;;14.90;7.30;;;5.70;86.80;;;;;;789837;180;26464;-76
2024/01/29 06:16:45;;;;;;;16.83;7.10;;;5.70;86.50;;;;;;792381;180;26553;-77
2024/01/29 06:19:17;;;;;;;17.00;7.20;;;5.60;86.40;;;;;;788081;181;26518;-77
2024/01/29 06:21:43;;;;;;;10.33;7.13;;;5.70;87.00;;;;;;787643;182;26442;-78
2024/01/29 06:24:09;;;;;;;15.17;7.70;;;5.70;87.10;;;;;;793676;177;26441;-76
2024/01/29 06:26:36;;;;;;;16.17;7.73;;;5.70;87.10;;;;;;779100;179;26485;-78
2024/01/29 06:29:03;;;;;;;18.67;8.47;;;5.70;86.80;;;;;;780949;178;26498;-78
2024/01/29 06:31:29;;;;;;;12.27;7.20;;;5.70;86.90;;;;;;779712;184;26519;-78
2024/01/29 06:33:56;;;;;;;11.93;6.80;;;5.70;87.50;;;;;;786682;179;26460;-77
2024/01/29 06:36:22;;;;;;;12.93;7.87;;;5.70;87.80;;;;;;776025;183;26494;-78
2024/01/29 06:38:49;;;;;;;14.20;7.87;;;5.70;88.20;;;;;;790175;180;26564;-78
2024/01/29 06:41:19;;;;;;;14.27;9.00;;;5.70;87.90;;;;;;771525;185;26573;-77
2024/01/29 06:43:46;;;;;;;17.70;7.90;;;5.60;88.10;;;;;;782449;180;26461;-76
2024/01/29 06:46:12;;;;;;;16.50;8.33;;;5.60;88.20;;;;;;785034;181;26462;-78
2024/01/29 06:48:39;;;;;;;17.33;9.40;;;5.70;88.50;;;;;;790951;177;26460;-77
2024/01/29 06:51:05;;;;;;;17.10;8.50;;;5.60;89.00;;;;;;793668;181;26456;-78
2024/01/29 06:53:33;;;;;;;13.37;7.90;;;5.60;88.50;;;;;;790248;180;26467;-78
2024/01/29 06:55:59;;;;;;;16.00;8.43;;;5.60;89.70;;;;;;790414;179;26484;-78
2024/01/29 06:58:26;;;;;;;17.20;9.20;;;5.50;88.90;;;;;;789297;180;27091;-77
2024/01/29 07:00:54;;;;;;;15.10;8.20;;;5.60;89.50;;;;;;794989;180;26552;-77
2024/01/29 07:03:19;;;;;;;15.53;8.10;;;5.70;89.30;;;;;;792829;181;27033;-77
2024/01/29 07:05:48;;;;;;;18.97;8.67;;;5.70;89.10;;;;;;794475;179;26477;-78
2024/01/29 07:08:17;;;;;;;13.93;7.53;;;5.70;89.50;;;;;;796401;179;26465;-78
2024/01/29 07:10:45;;;;;;;15.37;8.57;;;5.70;88.80;;;;;;795281;180;26468;-78
2024/01/29 07:13:11;;;;;;;14.73;8.03;;;5.70;89.80;;;;;;788156;181;26502;-77
2024/01/29 07:15:38;;;;;;;15.93;7.87;;;5.80;88.30;;;;;;792321;181;26510;-77
2024/01/29 07:18:05;;;;;;;14.93;8.30;;;5.70;89.00;;;;;;774979;183;26652;-83
2024/01/29 07:20:38;;;;;;;14.90;8.63;;;5.70;89.30;;;;;;791957;180;26507;-76
2024/01/29 07:22:58;;;;;;;16.00;8.63;;;5.70;89.30;;;;;;791235;181;27006;-77
2024/01/29 07:25:26;;;;;;;17.70;8.53;;;5.70;89.80;;;;;;790542;180;26489;-77
2024/01/29 07:27:51;;;;;;;15.87;8.43;;;5.70;90.20;;;;;;787422;179;26499;-78
2024/01/29 07:30:18;;;;;;;14.30;8.27;;;5.60;90.10;;;;;;787711;180;26477;-79
2024/01/29 07:32:44;;;;;;;13.40;8.37;;;5.70;88.90;;;;;;787908;180;26513;-78
2024/01/29 07:35:11;;;;;;;18.57;7.90;;;5.80;88.50;;;;;;789764;180;27049;-77
2024/01/29 07:37:38;;;;;;;16.37;8.80;;;5.80;88.50;;;;;;793061;177;26487;-78
2024/01/29 07:40:05;;;;;;;16.33;8.63;;;5.80;88.60;;;;;;791769;180;26533;-79
2024/01/29 07:42:32;;;;;;;16.53;8.60;;;5.70;88.90;;;;;;791116;180;26508;-78
2024/01/29 07:44:58;;;;;;;18.03;9.27;;;5.70;88.90;;;;;;790164;180;26495;-78
2024/01/29 07:47:26;;;;;;;16.70;8.80;;;5.70;89.20;;;;;;792521;179;26517;-78
2024/01/29 07:49:51;;;;;;;19.13;7.87;;;5.80;89.00;;;;;;787729;178;26509;-78
2024/01/29 07:52:18;;;;;;;14.93;8.73;;;5.80;89.30;;;;;;787900;181;26496;-78
2024/01/29 07:54:45;;;;;;;13.30;8.37;;;5.80;90.00;;;;;;788415;180;26456;-78
2024/01/29 07:57:11;;;;;;;15.67;8.03;;;5.80;90.00;;;;;;787429;181;27013;-78
2024/01/29 07:59:39;;;;;;;21.73;9.10;;;5.80;89.90;;;;;;790690;181;26514;-78
2024/01/29 08:02:04;;;;;;;14.23;8.50;;;5.80;89.80;;;;;;787991;181;26572;-78
2024/01/29 08:04:32;;;;;;;16.37;8.37;;;5.80;90.00;;;;;;787693;181;26493;-77
2024/01/29 08:06:58;;;;;;;19.20;8.93;;;5.80;89.20;;;;;;765953;187;26516;-77
2024/01/29 08:09:26;;;;;;;17.37;8.87;;;5.80;90.10;;;;;;765970;185;26518;-77
2024/01/29 08:11:51;;;;;;;16.67;8.87;;;5.90;89.70;;;;;;778774;184;27053;-78
2024/01/29 08:14:17;;;;;;;19.73;8.60;;;6.00;89.50;;;;;;784856;180;26510;-77
2024/01/29 08:16:44;;;;;;;18.47;8.77;;;5.90;90.00;;;;;;782576;181;27095;-77
2024/01/29 08:19:11;;;;;;;19.57;9.20;;;6.10;89.20;;;;;;786910;180;26478;-78
2024/01/29 08:21:37;;;;;;;14.23;8.87;;;6.10;89.40;;;;;;786922;181;26472;-79
2024/01/29 08:24:04;;;;;;;13.73;9.33;;;6.10;89.60;;;;;;787750;178;26566;-77
2024/01/29 08:26:31;;;;;;;15.93;9.63;;;6.20;89.00;;;;;;786957;182;26472;-78
2024/01/29 08:28:58;;;;;;;17.40;10.40;;;6.20;88.80;;;;;;790691;178;26614;-77
2024/01/29 08:31:24;;;;;;;17.30;9.23;;;6.30;88.30;;;;;;794106;180;27104;-79
2024/01/29 08:33:51;;;;;;;18.53;10.00;;;6.40;89.40;;;;;;796612;179;26475;-77
2024/01/29 08:36:20;;;;;;;19.10;10.73;;;6.40;88.50;;;;;;795751;180;26504;-77
2024/01/29 08:38:44;;;;;;;19.23;10.03;;;6.40;88.50;;;;;;792311;180;27109;-78
2024/01/29 08:41:10;;;;;;;16.03;9.37;;;6.50;88.70;;;;;;788469;182;26459;-78
2024/01/29 08:43:38;;;;;;;17.93;9.90;;;6.60;89.50;;;;;;788517;181;26498;-78
2024/01/29 08:46:05;;;;;;;19.23;9.47;;;6.60;87.90;;;;;;786091;181;26471;-78
2024/01/29 08:48:31;;;;;;;19.40;9.90;;;6.70;87.40;;;;;;787461;180;26641;-77
2024/01/29 08:50:58;;;;;;;19.97;9.73;;;6.80;87.20;;;;;;782699;182;26502;-77
2024/01/29 08:53:25;;;;;;;17.60;9.37;;;6.90;87.60;;;;;;782326;181;26451;-78
2024/01/29 08:55:52;;;;;;;17.87;9.10;;;6.90;87.00;;;;;;793622;180;27075;-78
2024/01/29 08:58:18;;;;;;;16.47;9.47;;;7.00;87.00;;;;;;793796;178;26478;-77
2024/01/29 09:00:45;;;;;;;16.77;10.43;;;7.10;86.10;;;;;;793963;180;26475;-77
2024/01/29 09:03:12;;;;;;;15.53;9.17;;;7.20;85.40;;;;;;792873;181;26460;-77
2024/01/29 09:05:38;;;;;;;18.87;8.93;;;7.20;85.70;;;;;;790562;180;26456;-78
2024/01/29 09:08:05;;;;;;;18.50;10.53;;;7.30;85.00;;;;;;789445;181;26455;-77
2024/01/29 09:10:32;;;;;;;16.13;9.20;;;7.40;85.10;;;;;;791135;180;27045;-79
2024/01/29 09:12:59;;;;;;;17.57;9.60;;;7.40;84.80;;;;;;787951;180;26464;-78
2024/01/29 09:15:26;;;;;;;16.23;9.87;;;7.50;84.70;;;;;;787433;181;26455;-79
2024/01/29 09:17:52;;;;;;;21.10;9.27;;;7.50;84.10;;;;;;793902;180;27071;-79
2024/01/29 09:20:19;;;;;;;13.93;8.80;;;7.60;83.10;;;;;;792582;179;26466;-78
2024/01/29 09:22:46;;;;;;;19.00;9.50;;;7.70;83.20;;;;;;793501;180;26459;-79
2024/01/29 09:25:13;;;;;;;16.83;9.33;;;7.70;83.10;;;;;;792934;180;26539;-79
2024/01/29 09:27:39;;;;;;;20.60;9.70;;;7.80;82.70;;;;;;793007;181;26482;-77
2024/01/29 09:30:07;;;;;;;17.43;9.87;;;7.80;83.50;;;;;;789641;178;26460;-78
2024/01/29 09:32:34;;;;;;;17.60;9.93;;;7.80;83.30;;;;;;794798;178;26454;-79
2024/01/29 09:35:00;;;;;;;20.80;10.13;;;7.90;83.20;;;;;;797490;179;26475;-80
2024/01/29 09:37:27;;;;;;;16.47;9.67;;;8.00;83.20;;;;;;770150;183;26509;-80
2024/01/29 09:39:54;;;;;;;22.50;9.57;;;8.00;82.10;;;;;;798799;179;26446;-79
2024/01/29 09:42:20;;;;;;;18.23;10.00;;;8.10;82.10;;;;;;798729;176;26455;-79
2024/01/29 09:44:47;;;;;;;15.70;9.97;;;8.20;82.20;;;;;;798511;176;26479;-79
2024/01/29 09:47:13;;;;;;;19.33;10.77;;;8.30;80.90;;;;;;798347;179;26615;-79
2024/01/29 09:49:40;;;;;;;19.67;11.10;;;8.50;81.30;;;;;;793521;180;26467;-79
2024/01/29 09:52:07;;;;;;;19.67;10.07;;;8.60;80.70;;;;;;790150;181;26453;-78
2024/01/29 09:54:34;;;;;;;18.93;11.23;;;8.60;80.60;;;;;;790425;178;27003;-78
2024/01/29 09:57:00;;;;;;;21.10;10.63;;;8.70;80.30;;;;;;789745;181;26471;-80
2024/01/29 09:59:27;;;;;;;19.97;10.37;;;8.70;80.50;;;;;;790626;181;26473;-81
2024/01/29 10:01:54;;;;;;;21.97;10.03;;;8.70;80.20;;;;;;790113;181;26988;-78
2024/01/29 10:04:21;;;;;;;24.57;11.17;;;8.70;80.90;;;;;;788429;181;26476;-79
2024/01/29 10:06:47;;;;;;;18.17;9.80;;;8.70;80.40;;;;;;793749;178;26493;-79
2024/01/29 10:09:14;;;;;;;21.30;9.90;;;8.80;79.60;;;;;;797107;180;26463;-80
2024/01/29 10:11:42;;;;;;;23.57;10.67;;;8.90;79.50;;;;;;796846;180;26467;-80
2024/01/29 10:14:08;;;;;;;18.43;9.77;;;9.00;79.60;;;;;;795613;180;26463;-80
2024/01/29 10:16:35;;;;;;;20.73;11.27;;;9.20;79.10;;;;;;794569;180;26475;-79
2024/01/29 10:19:01;;;;;;;19.10;10.13;;;9.10;79.30;;;;;;792836;181;26477;-79
2024/01/29 10:21:32;;;;;;;21.73;10.47;;;9.10;79.70;;;;;;792792;180;26470;-78
2024/01/29 10:23:56;;;;;;;26.10;11.13;;;9.10;80.60;;;;;;792304;177;26460;-79
2024/01/29 10:26:23;;;;;;;17.63;11.03;;;9.20;80.60;;;;;;789425;181;26475;-80
2024/01/29 10:29:02;;;;;;;19.80;10.13;;;9.30;79.50;;;;;;788584;178;26460;-80
2024/01/29 10:31:28;;;;;;;16.17;10.30;;;9.40;78.70;;;;;;788851;180;26510;-79
2024/01/29 10:33:54;;;;;;;22.50;11.43;;;9.60;78.40;;;;;;791242;180;26468;-79
2024/01/29 10:36:21;;;;;;;21.13;11.00;;;9.90;77.90;;;;;;790658;181;27218;-78
2024/01/29 10:38:48;;;;;;;21.27;11.37;;;10.10;76.10;;;;;;794383;181;26485;-78
2024/01/29 10:41:17;;;;;;;19.37;10.73;;;10.10;76.10;;;;;;792876;181;26466;-78
2024/01/29 10:43:42;;;;;;;23.63;10.57;;;10.40;75.40;;;;;;792422;179;26490;-79
2024/01/29 10:46:09;;;;;;;17.47;9.57;;;10.40;73.80;;;;;;791586;181;27045;-78
2024/01/29 10:48:35;;;;;;;17.47;9.83;;;10.50;73.20;;;;;;793153;181;26468;-79
2024/01/29 10:51:02;;;;;;;17.47;9.63;;;10.60;73.50;;;;;;794761;177;26438;-79
2024/01/29 10:53:29;;;;;;;20.17;10.00;;;10.60;73.90;;;;;;791016;180;26471;-78
2024/01/29 10:55:56;;;;;;;20.33;9.60;;;10.90;73.00;;;;;;788304;180;27683;-78
2024/01/29 10:58:23;;;;;;;18.53;9.77;;;11.70;70.90;;;;;;789460;181;26505;-79
2024/01/29 11:00:51;;;;;;;17.60;10.30;;;12.60;66.80;;;;;;790118;180;26453;-79
2024/01/29 11:03:17;;;;;;;20.90;10.70;;;13.20;64.00;;;;;;779415;181;26511;-79
2024/01/29 11:05:44;;;;;;;21.80;10.30;;;13.60;61.80;;;;;;780654;182;26451;-80
2024/01/29 11:08:10;;;;;;;23.90;9.73;;;14.20;61.10;;;;;;788546;181;26488;-78
2024/01/29 11:10:37;;;;;;;16.43;9.63;;;14.50;59.20;;;;;;785634;180;26780;-78
2024/01/29 11:13:04;;;;;;;18.90;10.30;;;14.80;58.10;;;;;;789314;180;26502;-79
2024/01/29 11:15:30;;;;;;;18.83;10.23;;;14.90;57.70;;;;;;792746;180;27029;-79
2024/01/29 11:17:57;;;;;;;18.43;10.27;;;14.30;58.00;;;;;;789923;182;26481;-78
2024/01/29 11:20:24;;;;;;;23.63;10.23;;;13.80;59.90;;;;;;791335;181;26468;-79
2024/01/29 11:22:51;;;;;;;18.73;10.13;;;14.00;60.00;;;;;;797533;177;26461;-79
2024/01/29 11:25:18;;;;;;;17.73;10.17;;;14.40;58.90;;;;;;783560;180;27075;-79
2024/01/29 11:36:12;;;;;;;20.63;8.93;;;16.90;52.20;;;;;;756409;173;26480;-80
2024/01/29 11:44:33;;;;;;;17.60;9.90;;;18.50;48.30;;;;;;772221;182;26491;-79
2024/01/29 11:47:11;;;;;;;25.03;10.27;;;18.20;49.10;;;;;;777302;180;26510;-79
2024/01/29 11:49:45;;;;;;;23.63;10.53;;;18.50;48.70;;;;;;776433;183;26515;-80
2024/01/29 11:52:25;;;;;;;17.10;8.93;;;18.30;47.30;;;;;;762120;187;26495;-81
2024/01/29 11:54:59;;;;;;;16.97;9.23;;;18.80;47.80;;;;;;760541;187;26609;-80
2024/01/29 11:57:33;;;;;;;15.13;10.13;;;18.60;47.50;;;;;;766689;184;26499;-80
2024/01/29 12:00:12;;;;;;;18.90;9.87;;;18.60;46.90;;;;;;762900;187;26486;-81
2024/01/29 12:02:50;;;;;;;14.37;9.07;;;19.20;48.10;;;;;;770768;185;26584;-80
2024/01/29 12:05:24;;;;;;;15.60;9.10;;;19.00;48.10;;;;;;770132;183;26491;-78
2024/01/29 12:07:51;;;;;;;18.07;8.87;;;19.80;46.60;;;;;;768211;182;26495;-80
2024/01/29 12:10:21;;;;;;;14.73;8.70;;;21.40;42.30;;;;;;775191;184;26483;-81
2024/01/29 12:12:47;;;;;;;16.70;9.10;;;21.10;39.90;;;;;;771568;185;26475;-80
2024/01/29 12:15:14;;;;;;;16.77;8.93;;;20.30;42.00;;;;;;772260;186;26632;-79
2024/01/29 12:17:41;;;;;;;15.80;8.57;;;20.00;44.40;;;;;;771835;185;26517;-79
2024/01/29 12:20:10;;;;;;;14.57;9.83;;;20.40;44.50;;;;;;764971;187;26510;-79
2024/01/29 12:22:35;;;;;;;14.37;9.37;;;20.50;44.90;;;;;;764133;187;26519;-80
2024/01/29 12:25:02;;;;;;;18.07;9.03;;;20.50;45.00;;;;;;764627;185;26497;-80
2024/01/29 12:27:29;;;;;;;18.37;9.33;;;20.70;43.10;;;;;;764494;184;26517;-80
2024/01/29 12:29:56;;;;;;;20.00;9.87;;;20.30;43.50;;;;;;765567;185;26505;-79
2024/01/29 12:32:23;;;;;;;14.73;8.77;;;19.90;45.20;;;;;;765510;185;26578;-80
2024/01/29 12:34:50;;;;;;;14.23;8.60;;;19.10;47.00;;;;;;765736;188;26500;-80
2024/01/29 12:37:19;;;;;;;16.17;9.03;;;19.40;47.20;;;;;;768315;187;26549;-80
2024/01/29 12:39:50;;;;;;;14.90;9.03;;;19.10;46.20;;;;;;764970;188;26547;-80
2024/01/29 12:42:16;;;;;;;16.87;9.03;;;18.70;47.60;;;;;;765113;186;26499;-80
2024/01/29 12:44:43;;;;;;;14.63;9.03;;;18.50;50.00;;;;;;764906;188;26514;-79
2024/01/29 12:47:12;;;;;;;14.90;8.87;;;18.10;48.80;;;;;;765061;187;26513;-79
2024/01/29 12:49:39;;;;;;;16.83;9.33;;;17.40;51.00;;;;;;764869;188;27040;-79
2024/01/29 12:52:05;;;;;;;19.67;11.50;;;17.70;52.50;;;;;;764333;188;26514;-80
2024/01/29 12:54:32;;;;;;;20.03;10.30;;;17.80;52.10;;;;;;764486;186;26514;-81
2024/01/29 12:56:59;;;;;;;17.73;9.57;;;18.10;51.10;;;;;;766709;187;26508;-81
2024/01/29 12:59:25;;;;;;;15.00;8.70;;;18.20;50.30;;;;;;765999;188;27067;-82